createdAt,value
2023-07-05T00:02:12.912Z,100447.03
2023-07-05T00:04:40.879Z,100449.84
2023-07-05T00:07:08.842Z,100444.72
2023-07-05T00:09:38.162Z,100448.41
2023-07-05T00:12:06.695Z,100443.16
2023-07-05T00:14:35.984Z,100446.00
2023-07-05T00:17:03.951Z,100445.00
2023-07-05T00:19:31.900Z,100450.13
2023-07-05T00:21:59.815Z,100446.53
2023-07-05T00:24:27.799Z,100450.69
2023-07-05T00:26:57.103Z,100450.44
2023-07-05T00:29:25.040Z,100450.44
2023-07-05T00:31:53.075Z,100441.81
2023-07-05T00:34:21.094Z,100437.03
2023-07-05T00:36:49.027Z,100441.34
2023-07-05T00:39:16.969Z,100440.72
2023-07-05T00:41:44.984Z,100439.69
2023-07-05T00:44:16.095Z,100439.78
2023-07-05T00:46:50.001Z,100433.72
2023-07-05T00:49:22.355Z,100445.16
2023-07-05T00:51:55.187Z,100447.50
2023-07-05T00:54:27.952Z,100441.41
2023-07-05T00:56:58.934Z,100449.53
2023-07-05T00:59:33.153Z,100446.22
2023-07-05T01:02:03.395Z,100441.59
2023-07-05T01:04:32.911Z,100441.03
2023-07-05T01:07:01.192Z,100430.44
2023-07-05T01:09:29.285Z,100440.69
2023-07-05T01:12:08.344Z,100440.19
2023-07-05T01:14:45.843Z,100431.97
2023-07-05T01:17:24.054Z,100434.97
2023-07-05T01:20:19.566Z,100431.69
2023-07-05T01:23:08.606Z,100421.09
2023-07-05T01:26:03.678Z,100424.91
2023-07-05T01:28:51.602Z,100422.03
2023-07-05T01:31:45.446Z,100421.31
2023-07-05T01:34:21.705Z,100426.78
2023-07-05T01:36:50.718Z,100420.72
2023-07-05T01:39:18.725Z,100419.72
2023-07-05T01:41:46.741Z,100410.31
2023-07-05T01:44:16.375Z,100413.44
2023-07-05T01:46:52.067Z,100407.66
2023-07-05T01:49:39.058Z,100402.19
2023-07-05T01:52:14.483Z,100402.19
2023-07-05T01:54:48.211Z,100414.78
2023-07-05T01:57:23.218Z,100413.50
2023-07-05T01:59:56.959Z,100420.13
2023-07-05T02:02:30.967Z,100415.81
2023-07-05T02:05:01.477Z,100413.16
2023-07-05T02:07:31.622Z,100405.41
2023-07-05T02:09:59.767Z,100410.25
2023-07-05T02:12:28.833Z,100417.84
2023-07-05T02:14:56.801Z,100423.16
2023-07-05T02:17:26.560Z,100426.31
2023-07-05T02:19:54.708Z,100420.75
2023-07-05T02:22:22.948Z,100424.88
2023-07-05T02:24:53.161Z,100419.22
2023-07-05T02:27:21.621Z,100408.19
2023-07-05T02:29:49.845Z,100412.66
2023-07-05T02:32:18.054Z,100416.47
2023-07-05T02:34:47.364Z,100417.31
2023-07-05T02:37:15.866Z,100423.25
2023-07-05T02:39:43.940Z,100404.19
2023-07-05T02:42:12.239Z,100414.41
2023-07-05T02:44:41.825Z,100412.38
2023-07-05T02:47:10.108Z,100424.78
2023-07-05T02:49:38.046Z,100421.47
2023-07-05T02:52:08.222Z,100420.97
2023-07-05T02:54:36.160Z,100424.78
2023-07-05T02:57:04.937Z,100419.47
2023-07-05T02:59:33.189Z,100420.31
2023-07-05T03:02:01.302Z,100426.91
2023-07-05T03:04:29.876Z,100423.13
2023-07-05T03:06:58.313Z,100411.09
2023-07-05T03:09:27.696Z,100424.63
2023-07-05T03:11:55.657Z,100420.81
2023-07-05T03:14:23.685Z,100423.47
2023-07-05T03:16:51.710Z,100424.78
2023-07-05T03:19:19.811Z,100430.69
2023-07-05T03:21:49.425Z,100425.25
2023-07-05T03:24:17.400Z,100427.25
2023-07-05T03:26:46.716Z,100427.88
2023-07-05T03:29:14.679Z,100423.53
2023-07-05T03:31:42.703Z,100416.91
2023-07-05T03:34:10.727Z,100418.19
2023-07-05T03:36:38.835Z,100413.22
2023-07-05T03:39:06.796Z,100416.97
2023-07-05T03:41:34.779Z,100418.28
2023-07-05T03:44:04.251Z,100431.97
2023-07-05T03:46:32.329Z,100415.31
2023-07-05T03:49:00.629Z,100433.56
2023-07-05T03:51:28.853Z,100431.34
2023-07-05T03:53:58.881Z,100431.16
2023-07-05T03:56:28.806Z,100438.19
2023-07-05T03:59:00.804Z,100432.66
2023-07-05T04:01:31.810Z,100441.03
2023-07-05T04:04:03.400Z,100441.34
2023-07-05T04:06:36.176Z,100416.91
2023-07-05T04:09:05.183Z,100439.88
2023-07-05T04:11:33.198Z,100434.94
2023-07-05T04:14:01.383Z,100435.69
2023-07-05T04:16:30.874Z,100447.31
2023-07-05T04:18:59.486Z,100431.94
2023-07-05T04:21:28.863Z,100429.38
2023-07-05T04:23:57.026Z,100428.78
2023-07-05T04:26:27.137Z,100431.00
2023-07-05T04:28:55.874Z,100429.56
2023-07-05T04:31:28.992Z,100426.88
2023-07-05T04:33:58.679Z,100436.44
2023-07-05T04:36:28.654Z,100437.75
2023-07-05T04:38:58.308Z,100429.66
2023-07-05T04:41:26.644Z,100423.56
2023-07-05T04:43:55.086Z,100429.84
2023-07-05T04:46:24.253Z,100430.38
2023-07-05T04:48:52.550Z,100434.22
2023-07-05T04:51:21.977Z,100432.53
2023-07-05T04:53:50.101Z,100427.31
2023-07-05T04:56:18.426Z,100422.38
2023-07-05T04:58:46.389Z,100425.50
2023-07-05T05:01:15.011Z,100426.03
2023-07-05T05:03:43.570Z,100425.84
2023-07-05T05:06:12.059Z,100433.09
2023-07-05T05:08:41.568Z,100431.16
2023-07-05T05:11:09.556Z,100421.56
2023-07-05T05:13:38.540Z,100433.91
2023-07-05T05:16:07.693Z,100431.22
2023-07-05T05:18:38.575Z,100435.34
2023-07-05T05:21:07.039Z,100437.38
2023-07-05T05:23:35.194Z,100439.84
2023-07-05T05:26:05.351Z,100436.78
2023-07-05T05:28:33.335Z,100435.94
2023-07-05T05:31:06.730Z,100430.38
2023-07-05T05:33:35.141Z,100438.34
2023-07-05T05:36:03.800Z,100445.09
2023-07-05T05:38:31.952Z,100443.81
2023-07-05T05:41:05.414Z,100439.16
2023-07-05T05:43:33.509Z,100441.16
2023-07-05T05:46:01.534Z,100441.75
2023-07-05T05:48:29.664Z,100448.28
2023-07-05T05:50:57.646Z,100441.03
2023-07-05T05:53:25.589Z,100440.56
2023-07-05T05:55:53.575Z,100433.81
2023-07-05T05:58:22.899Z,100441.06
2023-07-05T06:00:51.487Z,100441.91
2023-07-05T06:03:19.646Z,100437.13
2023-07-05T06:05:47.708Z,100435.19
2023-07-05T06:08:15.635Z,100435.69
2023-07-05T06:10:43.572Z,100440.94
2023-07-05T06:13:16.816Z,100429.91
2023-07-05T06:15:53.516Z,100438.06
2023-07-05T06:18:32.155Z,100415.47
2023-07-05T06:21:00.075Z,100427.81
2023-07-05T06:23:28.057Z,100435.63
2023-07-05T06:25:56.005Z,100435.28
2023-07-05T06:28:23.921Z,100430.81
2023-07-05T06:30:53.691Z,100430.28
2023-07-05T06:33:21.914Z,100440.50
2023-07-05T06:35:51.111Z,100441.16
2023-07-05T06:38:19.123Z,100443.66
2023-07-05T06:40:53.342Z,100447.09
2023-07-05T06:43:22.996Z,100445.28
2023-07-05T06:45:51.425Z,100437.06
2023-07-05T06:48:21.317Z,100450.22
2023-07-05T06:50:52.409Z,100448.94
2023-07-05T06:53:38.257Z,100448.69
2023-07-05T06:56:10.819Z,100441.84
2023-07-05T06:58:38.998Z,100449.53
2023-07-05T07:01:08.404Z,100446.00
2023-07-05T07:03:38.595Z,100446.59
2023-07-05T07:06:06.975Z,100441.25
2023-07-05T07:08:36.370Z,100441.69
2023-07-05T07:11:05.955Z,100457.06
2023-07-05T07:13:37.834Z,100452.69
2023-07-05T07:16:09.551Z,100456.59
2023-07-05T07:18:39.427Z,100441.56
2023-07-05T07:21:08.737Z,100453.78
2023-07-05T07:23:37.599Z,100459.53
2023-07-05T07:26:08.151Z,100445.03
2023-07-05T07:28:36.302Z,100445.88
2023-07-05T07:31:11.810Z,100455.47
2023-07-05T07:33:41.527Z,100449.19
2023-07-05T07:36:11.297Z,100444.28
2023-07-05T07:38:41.475Z,100466.50
2023-07-05T07:41:14.479Z,100450.53
2023-07-05T07:43:42.519Z,100466.88
2023-07-05T07:46:11.516Z,100459.28
2023-07-05T07:48:42.317Z,100468.34
2023-07-05T07:51:19.965Z,100461.50
2023-07-05T07:53:52.171Z,100460.31
2023-07-05T07:56:22.444Z,100453.25
2023-07-05T07:58:53.610Z,100452.78
2023-07-05T08:01:24.434Z,100453.34
2023-07-05T08:03:54.212Z,100462.66
2023-07-05T08:06:23.137Z,100453.81
2023-07-05T08:08:51.087Z,100457.50
2023-07-05T08:11:19.055Z,100459.16
2023-07-05T08:13:49.929Z,100459.16
2023-07-05T08:16:19.341Z,100461.38
2023-07-05T08:18:47.525Z,100465.34
2023-07-05T08:21:18.215Z,100451.59
2023-07-05T08:23:49.233Z,100413.16
2023-07-05T08:26:18.597Z,100437.34
2023-07-05T08:28:49.785Z,100436.72
2023-07-05T08:31:18.171Z,100450.09
2023-07-05T08:33:46.383Z,100458.25
2023-07-05T08:36:29.560Z,100468.78
2023-07-05T08:38:57.783Z,100455.44
2023-07-05T08:41:37.366Z,100462.97
2023-07-05T08:44:15.614Z,100456.47
2023-07-05T08:46:46.493Z,100458.19
2023-07-05T08:49:18.879Z,100465.75
2023-07-05T08:51:48.239Z,100456.41
2023-07-05T08:54:17.964Z,100456.09
2023-07-05T08:56:49.614Z,100458.84
2023-07-05T08:59:26.563Z,100452.69
2023-07-05T09:01:58.112Z,100450.19
2023-07-05T09:04:29.142Z,100446.59
2023-07-05T09:07:06.082Z,100454.56
2023-07-05T09:09:52.237Z,100446.59
2023-07-05T09:12:28.219Z,100436.28
2023-07-05T09:15:16.835Z,100446.34
2023-07-05T09:17:55.758Z,100451.09
2023-07-05T09:20:39.037Z,100454.28
2023-07-05T09:23:12.286Z,100450.94
2023-07-05T09:25:55.010Z,100455.13
2023-07-05T09:28:30.165Z,100443.16
2023-07-05T09:31:00.657Z,100435.03
2023-07-05T09:33:35.300Z,100440.53
2023-07-05T09:36:10.642Z,100447.63
2023-07-05T09:38:45.760Z,100437.44
2023-07-05T09:41:16.671Z,100444.34
2023-07-05T09:43:44.644Z,100444.94
2023-07-05T09:46:19.925Z,100438.59
2023-07-05T09:48:49.218Z,100437.78
2023-07-05T09:51:18.606Z,100443.69
2023-07-05T09:53:52.152Z,100422.91
2023-07-05T09:56:28.601Z,100430.44
2023-07-05T09:59:09.888Z,100427.34
2023-07-05T10:01:42.004Z,100423.81
2023-07-05T10:04:10.597Z,100430.28
2023-07-05T10:06:41.382Z,100429.31
2023-07-05T10:09:15.662Z,100428.81
2023-07-05T10:11:46.491Z,100412.66
2023-07-05T10:14:17.793Z,100414.22
2023-07-05T10:16:52.058Z,100416.84
2023-07-05T10:19:32.846Z,100411.75
2023-07-05T10:22:08.575Z,100403.00
2023-07-05T10:24:45.240Z,100413.00
2023-07-05T10:27:26.962Z,100412.28
2023-07-05T10:30:04.186Z,100402.00
2023-07-05T10:32:32.782Z,100403.84
2023-07-05T10:35:01.716Z,100392.25
2023-07-05T10:37:33.292Z,100405.03
2023-07-05T10:40:11.139Z,100398.72
2023-07-05T10:42:42.341Z,100389.75
2023-07-05T10:45:15.787Z,100393.94
2023-07-05T10:47:47.462Z,100394.09
2023-07-05T10:50:17.466Z,100382.34
2023-07-05T10:52:53.817Z,100381.72
2023-07-05T10:55:29.847Z,100370.66
2023-07-05T10:58:10.797Z,100376.78
2023-07-05T11:00:42.114Z,100376.94
2023-07-05T11:03:14.678Z,100376.94
2023-07-05T11:05:46.392Z,100370.34
2023-07-05T11:08:20.742Z,100363.25
2023-07-05T11:10:50.775Z,100344.88
2023-07-05T11:13:20.184Z,100373.19
2023-07-05T11:15:50.009Z,100361.78
2023-07-05T11:18:19.711Z,100368.16
2023-07-05T11:20:50.711Z,100367.59
2023-07-05T11:23:56.357Z,100364.72
2023-07-05T11:26:35.206Z,100357.72
2023-07-05T11:29:04.627Z,100356.06
2023-07-05T11:32:00.814Z,100361.34
2023-07-05T11:34:42.052Z,100340.69
2023-07-05T11:37:39.799Z,100347.53
2023-07-05T11:40:49.173Z,100338.50
2023-07-05T11:43:27.024Z,100339.13
2023-07-05T11:45:55.056Z,100342.34
2023-07-05T11:48:44.060Z,100330.72
2023-07-05T11:51:36.874Z,100337.13
2023-07-05T11:54:07.712Z,100328.78
2023-07-05T11:56:38.668Z,100321.53
2023-07-05T11:59:09.269Z,100329.63
2023-07-05T12:01:41.331Z,100322.78
2023-07-05T12:04:15.957Z,100317.22
2023-07-05T12:06:47.271Z,100308.31
2023-07-05T12:09:18.605Z,100307.84
2023-07-05T12:11:46.606Z,100311.59
2023-07-05T12:14:18.092Z,100298.53
2023-07-05T12:16:46.988Z,100298.84
2023-07-05T12:19:19.286Z,100297.06
2023-07-05T12:21:56.418Z,100308.81
2023-07-05T12:24:24.405Z,100291.38
2023-07-05T12:26:53.045Z,100284.66
2023-07-05T12:29:29.618Z,100286.16
2023-07-05T12:32:06.514Z,100279.84
2023-07-05T12:34:34.932Z,100275.63
2023-07-05T12:37:03.122Z,100278.16
2023-07-05T12:39:31.219Z,100273.00
2023-07-05T12:42:06.419Z,100255.69
2023-07-05T12:44:35.985Z,100269.63
2023-07-05T12:47:14.619Z,100264.31
2023-07-05T12:49:42.719Z,100259.03
2023-07-05T12:52:20.792Z,100264.41
2023-07-05T12:54:49.242Z,100256.94
2023-07-05T12:57:23.018Z,100256.88
2023-07-05T13:00:04.697Z,100254.47
2023-07-05T13:02:35.596Z,100248.91
2023-07-05T13:05:06.232Z,100244.72
2023-07-05T13:07:35.308Z,100243.97
2023-07-05T13:10:07.608Z,100245.84
2023-07-05T13:12:46.389Z,100244.00
2023-07-05T13:15:16.268Z,100245.59
2023-07-05T13:17:44.329Z,100247.28
2023-07-05T13:20:21.044Z,100243.28
2023-07-05T13:22:58.955Z,100239.88
2023-07-05T13:25:33.006Z,100250.53
2023-07-05T13:28:03.834Z,100243.84
2023-07-05T13:30:33.379Z,100227.41
2023-07-05T13:33:05.613Z,100251.00
2023-07-05T13:35:35.755Z,100242.22
2023-07-05T13:38:03.740Z,100253.47
2023-07-05T13:40:32.914Z,100241.97
2023-07-05T13:43:04.876Z,100253.13
2023-07-05T13:45:40.832Z,100251.69
2023-07-05T13:48:08.996Z,100252.16
2023-07-05T13:50:37.130Z,100261.16
2023-07-05T13:53:11.173Z,100253.81
2023-07-05T13:55:39.428Z,100256.94
2023-07-05T13:58:11.106Z,100245.59
2023-07-05T14:00:41.455Z,100241.41
2023-07-05T14:03:09.525Z,100240.72
2023-07-05T14:05:37.663Z,100229.91
2023-07-05T14:08:08.798Z,100219.88
2023-07-05T14:10:37.595Z,100221.50
2023-07-05T14:13:05.831Z,100220.31
2023-07-05T14:15:37.626Z,100223.63
2023-07-05T14:18:07.910Z,100207.38
2023-07-05T14:20:38.213Z,100216.25
2023-07-05T14:23:08.231Z,100202.97
2023-07-05T14:25:42.406Z,100204.38
2023-07-05T14:28:10.405Z,100197.94
2023-07-05T14:30:39.479Z,100193.69
2023-07-05T14:33:11.294Z,100186.34
2023-07-05T14:35:39.459Z,100190.31
2023-07-05T14:38:09.482Z,100190.13
2023-07-05T14:40:38.617Z,100185.28
2023-07-05T14:43:07.062Z,100179.63
2023-07-05T14:45:38.535Z,100178.69
2023-07-05T14:48:08.243Z,100173.78
2023-07-05T14:50:36.649Z,100174.34
2023-07-05T14:53:09.740Z,100170.38
2023-07-05T14:55:38.757Z,100175.00
2023-07-05T14:58:13.051Z,100170.13
2023-07-05T15:00:43.095Z,100170.22
2023-07-05T15:03:19.877Z,100172.00
2023-07-05T15:05:48.058Z,100170.59
2023-07-05T15:08:16.036Z,100145.44
2023-07-05T15:10:44.035Z,100164.44
2023-07-05T15:13:13.145Z,100160.41
2023-07-05T15:15:43.131Z,100167.03
2023-07-05T15:18:12.583Z,100161.41
2023-07-05T15:20:40.638Z,100161.41
2023-07-05T15:23:08.671Z,100158.78
2023-07-05T15:25:36.922Z,100153.66
2023-07-05T15:28:06.405Z,100161.00
2023-07-05T15:30:34.414Z,100147.28
2023-07-05T15:33:02.962Z,100157.13
2023-07-05T15:35:32.331Z,100154.66
2023-07-05T15:38:00.284Z,100160.03
2023-07-05T15:40:28.267Z,100158.88
2023-07-05T15:42:56.216Z,100166.19
2023-07-05T15:45:26.346Z,100159.75
2023-07-05T15:47:55.559Z,100158.50
2023-07-05T15:50:25.304Z,100159.06
2023-07-05T15:52:54.606Z,100160.09
2023-07-05T15:55:24.187Z,100153.22
2023-07-05T15:57:53.087Z,100164.53
2023-07-05T16:00:28.864Z,100162.81
2023-07-05T16:03:01.687Z,100162.09
2023-07-05T16:05:31.629Z,100155.56
2023-07-05T16:08:02.546Z,100157.38
2023-07-05T16:10:30.937Z,100156.91
2023-07-05T16:13:00.496Z,100156.91
2023-07-05T16:15:29.315Z,100161.44
2023-07-05T16:18:00.349Z,100156.66
2023-07-05T16:20:28.788Z,100162.34
2023-07-05T16:22:57.000Z,100146.28
2023-07-05T16:25:26.905Z,100159.56
2023-07-05T16:27:54.865Z,100166.19
2023-07-05T16:30:22.977Z,100169.47
2023-07-05T16:32:51.053Z,100163.97
2023-07-05T16:35:19.177Z,100162.75
2023-07-05T16:37:47.174Z,100165.66
2023-07-05T16:40:15.152Z,100171.47
2023-07-05T16:42:44.839Z,100162.56
2023-07-05T16:45:14.226Z,100158.88
2023-07-05T16:47:42.855Z,100162.03
2023-07-05T16:50:12.256Z,100152.75
2023-07-05T16:52:40.380Z,100164.75
2023-07-05T16:55:09.791Z,100157.66
2023-07-05T16:57:37.773Z,100168.22
2023-07-05T17:00:10.374Z,100169.75
2023-07-05T17:02:41.399Z,100173.47
2023-07-05T17:05:10.037Z,100172.88
2023-07-05T17:07:38.036Z,100186.72
2023-07-05T17:10:06.564Z,100172.28
2023-07-05T17:12:34.721Z,100174.22
2023-07-05T17:15:02.737Z,100177.88
2023-07-05T17:17:32.876Z,100177.06
2023-07-05T17:20:03.202Z,100174.50
2023-07-05T17:22:31.652Z,100171.47
2023-07-05T17:24:59.635Z,100174.53
2023-07-05T17:27:27.650Z,100172.44
2023-07-05T17:29:55.643Z,100178.91
2023-07-05T17:32:23.961Z,100181.88
2023-07-05T17:34:53.302Z,100182.72
2023-07-05T17:37:21.800Z,100179.25
2023-07-05T17:39:50.358Z,100197.72
2023-07-05T17:42:18.303Z,100201.78
2023-07-05T17:44:46.251Z,100196.44
2023-07-05T17:47:16.099Z,100203.06
2023-07-05T17:49:44.066Z,100203.50
2023-07-05T17:52:13.385Z,100203.19
2023-07-05T17:54:41.329Z,100200.41
2023-07-05T17:57:09.272Z,100201.72
2023-07-05T17:59:37.795Z,100202.97
2023-07-05T18:02:06.137Z,100207.38
2023-07-05T18:04:34.168Z,100202.72
2023-07-05T18:07:02.142Z,100204.78
2023-07-05T18:09:31.510Z,100204.41
2023-07-05T18:11:59.490Z,100204.84
2023-07-05T18:14:27.476Z,100200.97
2023-07-05T18:16:55.688Z,100199.16
2023-07-05T18:19:23.940Z,100203.94
2023-07-05T18:21:51.896Z,100214.41
2023-07-05T18:24:20.040Z,100209.91
2023-07-05T18:26:53.757Z,100217.72
2023-07-05T18:29:21.842Z,100221.84
2023-07-05T18:31:49.898Z,100227.00
2023-07-05T18:34:17.978Z,100226.59
2023-07-05T18:36:46.091Z,100222.94
2023-07-05T18:39:14.034Z,100225.59
2023-07-05T18:41:41.983Z,100238.97
2023-07-05T18:44:11.351Z,100240.66
2023-07-05T18:46:39.327Z,100256.47
2023-07-05T18:49:07.306Z,100260.97
2023-07-05T18:51:35.232Z,100255.41
2023-07-05T18:54:05.467Z,100257.28
2023-07-05T18:56:33.764Z,100243.75
2023-07-05T18:59:01.738Z,100268.53
2023-07-05T19:01:31.116Z,100268.34
2023-07-05T19:03:59.076Z,100267.72
2023-07-05T19:06:28.117Z,100273.69
2023-07-05T19:08:56.686Z,100272.88
2023-07-05T19:11:29.669Z,100279.03
2023-07-05T19:13:57.709Z,100274.91
2023-07-05T19:16:27.374Z,100269.16
2023-07-05T19:18:58.969Z,100272.84
2023-07-05T19:21:27.223Z,100272.03
2023-07-05T19:23:55.403Z,100277.59
2023-07-05T19:26:23.635Z,100285.16
2023-07-05T19:28:52.911Z,100279.22
2023-07-05T19:31:23.047Z,100281.47
2023-07-05T19:33:52.102Z,100286.19
2023-07-05T19:36:24.017Z,100288.41
2023-07-05T19:38:53.366Z,100282.28
2023-07-05T19:41:23.198Z,100284.72
2023-07-05T19:43:51.559Z,100278.09
2023-07-05T19:46:24.349Z,100284.06
2023-07-05T19:48:52.633Z,100279.56
2023-07-05T19:51:22.042Z,100285.66
2023-07-05T19:53:50.014Z,100290.56
2023-07-05T19:56:17.941Z,100288.50
2023-07-05T19:58:47.203Z,100292.81
2023-07-05T20:01:16.131Z,100289.34
2023-07-05T20:03:44.470Z,100283.38
2023-07-05T20:06:12.529Z,100287.06
2023-07-05T20:08:43.594Z,100288.91
2023-07-05T20:11:14.905Z,100280.47
2023-07-05T20:13:43.478Z,100282.31
2023-07-05T20:16:12.037Z,100279.88
2023-07-05T20:18:40.158Z,100278.63
2023-07-05T20:21:12.207Z,100283.31
2023-07-05T20:23:45.013Z,100284.78
2023-07-05T20:26:17.678Z,100298.03
2023-07-05T20:28:47.216Z,100285.53
2023-07-05T20:31:15.599Z,100288.38
2023-07-05T20:33:44.213Z,100286.53
2023-07-05T20:36:15.979Z,100284.03
2023-07-05T20:38:46.260Z,100289.13
2023-07-05T20:41:15.156Z,100280.75
2023-07-05T20:43:43.177Z,100279.91
2023-07-05T20:46:11.821Z,100281.47
2023-07-05T20:48:41.243Z,100285.72
2023-07-05T20:51:13.064Z,100290.38
2023-07-05T20:53:41.056Z,100307.91
2023-07-05T20:56:11.516Z,100329.50
2023-07-05T20:58:39.507Z,100319.41
2023-07-05T21:01:10.415Z,100310.13
2023-07-05T21:03:39.192Z,100331.25
2023-07-05T21:06:07.733Z,100325.31
2023-07-05T21:08:37.007Z,100327.47
2023-07-05T21:11:07.085Z,100331.94
2023-07-05T21:13:39.655Z,100333.28
2023-07-05T21:16:09.736Z,100338.47
2023-07-05T21:18:38.586Z,100339.09
2023-07-05T21:21:07.500Z,100332.19
2023-07-05T21:23:36.617Z,100316.88
2023-07-05T21:26:06.056Z,100322.00
2023-07-05T21:28:34.599Z,100329.34
2023-07-05T21:31:07.160Z,100333.66
2023-07-05T21:33:35.950Z,100335.25
2023-07-05T21:36:04.262Z,100327.47
2023-07-05T21:38:32.758Z,100329.09
2023-07-05T21:41:01.854Z,100325.44
2023-07-05T21:43:30.711Z,100319.22
2023-07-05T21:45:59.100Z,100324.09
2023-07-05T21:48:30.375Z,100332.06
2023-07-05T21:50:59.389Z,100329.59
2023-07-05T21:53:28.263Z,100320.97
2023-07-05T21:55:57.886Z,100324.16
2023-07-05T21:58:30.236Z,100319.25
2023-07-05T22:00:58.934Z,100333.91
2023-07-05T22:03:28.902Z,100330.19
2023-07-05T22:05:59.804Z,100330.53
2023-07-05T22:08:28.097Z,100331.91
2023-07-05T22:10:56.754Z,100334.97
2023-07-05T22:13:25.174Z,100322.16
2023-07-05T22:15:54.232Z,100330.47
2023-07-05T22:18:22.804Z,100340.81
2023-07-05T22:20:52.218Z,100330.47
2023-07-05T22:23:21.094Z,100325.94
2023-07-05T22:25:49.058Z,100332.06
2023-07-05T22:28:17.093Z,100329.28
2023-07-05T22:30:45.038Z,100333.50
2023-07-05T22:33:13.591Z,100328.09
2023-07-05T22:35:41.670Z,100329.63
2023-07-05T22:38:11.002Z,100324.69
2023-07-05T22:40:38.961Z,100320.59
2023-07-05T22:43:07.364Z,100326.25
2023-07-05T22:45:37.194Z,100320.47
2023-07-05T22:48:05.753Z,100313.19
2023-07-05T22:50:33.817Z,100309.34
2023-07-05T22:53:01.789Z,100306.56
2023-07-05T22:55:31.176Z,100309.06
2023-07-05T22:57:59.116Z,100300.72
2023-07-05T23:00:27.358Z,100297.47
2023-07-05T23:02:56.581Z,100306.75
2023-07-05T23:05:27.406Z,100304.63
2023-07-05T23:07:55.589Z,100296.94
2023-07-05T23:10:23.811Z,100308.34
2023-07-05T23:12:53.207Z,100319.25
2023-07-05T23:15:23.806Z,100319.63
2023-07-05T23:17:53.928Z,100317.97
2023-07-05T23:20:23.299Z,100313.88
2023-07-05T23:22:51.826Z,100310.09
2023-07-05T23:25:19.768Z,100308.78
2023-07-05T23:27:47.725Z,100320.75
2023-07-05T23:30:17.236Z,100324.56
2023-07-05T23:32:45.230Z,100323.47
2023-07-05T23:35:15.031Z,100320.56
2023-07-05T23:37:42.960Z,100314.72
2023-07-05T23:40:13.716Z,100316.09
2023-07-05T23:42:42.901Z,100327.84
2023-07-05T23:45:12.762Z,100328.56
2023-07-05T23:47:42.242Z,100327.03
2023-07-05T23:50:12.877Z,100329.03
2023-07-05T23:52:41.809Z,100327.75
2023-07-05T23:55:10.584Z,100318.66
2023-07-05T23:57:39.298Z,100330.72
